Time;durP1;ratioP1;P1;durP2;ratioP2;P2;SDS_P1;SDS_P2;PMS_P1;PMS_P2;Temp;Humidity;BMP_temperature;BMP_pressure;BME280_temperature;BME280_humidity;BME280_pressure;Samples;Min_cycle;Max_cycle;Signal;HPM_P1;HPM_P2
2023/08/12 00:02:21;;;;;;;6.05;2.40;;;;;;;;;;5003915;28;20172;-77
2023/08/12 00:04:47;;;;;;;4.10;2.20;;;;;;;;;;5008303;28;20083;-77
2023/08/12 00:07:12;;;;;;;3.35;2.03;;;;;;;;;;5003908;28;20044;-77
2023/08/12 00:09:37;;;;;;;6.10;2.22;;;;;;;;;;5024916;28;20030;-77
2023/08/12 00:12:03;;;;;;;5.78;2.47;;;;;;;;;;5014449;28;20021;-77
2023/08/12 00:14:28;;;;;;;5.15;2.40;;;;;;;;;;5007302;28;20025;-77
2023/08/12 00:16:54;;;;;;;4.22;2.10;;;;;;;;;;5022232;28;20113;-77
2023/08/12 00:19:19;;;;;;;4.03;2.30;;;;;;;;;;5024084;28;20053;-77
2023/08/12 00:21:44;;;;;;;4.65;2.53;;;;;;;;;;5030071;28;20776;-77
2023/08/12 00:24:09;;;;;;;3.95;2.70;;;;;;;;;;5016998;28;20069;-78
2023/08/12 00:26:34;;;;;;;4.85;2.17;;;;;;;;;;5021963;28;20042;-77
2023/08/12 00:28:59;;;;;;;4.10;2.10;;;;;;;;;;5020006;28;20037;-77
2023/08/12 00:31:25;;;;;;;5.60;2.40;;;;;;;;;;5007491;28;20052;-77
2023/08/12 00:33:50;;;;;;;5.05;1.92;;;;;;;;;;5021632;28;20501;-77
2023/08/12 00:36:15;;;;;;;4.35;2.10;;;;;;;;;;5006920;28;20056;-77
2023/08/12 00:38:41;;;;;;;6.10;2.50;;;;;;;;;;5023251;28;20029;-77
2023/08/12 00:41:06;;;;;;;4.00;2.13;;;;;;;;;;5021585;28;20034;-77
2023/08/12 00:43:32;;;;;;;5.13;2.35;;;;;;;;;;5023210;28;20032;-77
2023/08/12 00:45:57;;;;;;;5.88;2.63;;;;;;;;;;5004124;28;20688;-77
2023/08/12 00:48:23;;;;;;;5.00;2.70;;;;;;;;;;5006949;28;20053;-77
2023/08/12 00:50:48;;;;;;;4.85;2.33;;;;;;;;;;5008187;28;20029;-77
2023/08/12 00:53:15;;;;;;;3.55;2.20;;;;;;;;;;4999860;28;20021;-77
2023/08/12 00:55:40;;;;;;;6.03;2.85;;;;;;;;;;5004648;28;20029;-77
2023/08/12 00:58:06;;;;;;;4.80;2.45;;;;;;;;;;5019500;28;20117;-77
2023/08/12 01:00:31;;;;;;;4.10;2.60;;;;;;;;;;5031860;28;20037;-77
2023/08/12 01:02:57;;;;;;;5.15;2.50;;;;;;;;;;5023052;28;20120;-77
2023/08/12 01:05:22;;;;;;;7.60;4.03;;;;;;;;;;5013127;28;20038;-77
2023/08/12 01:07:48;;;;;;;3.28;1.90;;;;;;;;;;5006292;28;20087;-77
2023/08/12 01:10:16;;;;;;;5.63;2.60;;;;;;;;;;4987286;28;20033;-77
2023/08/12 01:13:00;;;;;;;3.92;2.40;;;;;;;;;;5023167;28;20078;-77
2023/08/12 01:15:26;;;;;;;4.60;2.63;;;;;;;;;;5003960;28;20030;-77
2023/08/12 01:17:53;;;;;;;4.82;2.63;;;;;;;;;;5022460;28;20140;-77
2023/08/12 01:20:24;;;;;;;4.28;2.50;;;;;;;;;;5021441;28;20034;-77
2023/08/12 01:22:52;;;;;;;6.22;2.75;;;;;;;;;;5003554;28;20176;-77
2023/08/12 01:25:17;;;;;;;4.28;2.45;;;;;;;;;;5007345;28;20107;-77
2023/08/12 01:27:43;;;;;;;8.30;2.92;;;;;;;;;;5027733;28;20028;-77
2023/08/12 01:30:10;;;;;;;5.97;3.10;;;;;;;;;;5017319;28;20032;-77
2023/08/12 01:32:42;;;;;;;5.47;2.97;;;;;;;;;;5008973;28;20033;-77
2023/08/12 01:35:17;;;;;;;5.97;2.97;;;;;;;;;;5027103;28;20033;-77
2023/08/12 01:37:43;;;;;;;5.68;3.30;;;;;;;;;;5016289;28;20034;-77
2023/08/12 01:40:09;;;;;;;6.10;2.92;;;;;;;;;;5026887;28;20040;-77
2023/08/12 01:42:34;;;;;;;6.65;2.42;;;;;;;;;;5030869;28;20112;-77
2023/08/12 01:45:01;;;;;;;5.63;2.65;;;;;;;;;;5009853;28;20515;-77
2023/08/12 01:47:26;;;;;;;4.70;2.65;;;;;;;;;;5017588;28;20036;-77
2023/08/12 01:49:52;;;;;;;4.57;2.90;;;;;;;;;;5029513;28;20480;-77
2023/08/12 01:52:17;;;;;;;5.43;2.72;;;;;;;;;;5007336;28;20560;-77
2023/08/12 01:54:42;;;;;;;6.50;2.78;;;;;;;;;;5010576;28;20025;-77
2023/08/12 01:57:08;;;;;;;6.03;3.38;;;;;;;;;;5017749;28;20041;-77
2023/08/12 01:59:34;;;;;;;7.05;2.53;;;;;;;;;;5011954;28;20080;-77
2023/08/12 02:01:59;;;;;;;4.65;2.67;;;;;;;;;;5026637;28;20041;-77
2023/08/12 02:04:25;;;;;;;5.47;2.28;;;;;;;;;;5006878;28;20045;-77
2023/08/12 02:06:51;;;;;;;8.70;2.80;;;;;;;;;;5002717;28;20032;-77
2023/08/12 02:09:16;;;;;;;6.72;2.97;;;;;;;;;;5000168;28;20026;-77
2023/08/12 02:11:41;;;;;;;6.32;2.78;;;;;;;;;;5009183;28;20420;-77
2023/08/12 02:14:06;;;;;;;4.95;2.95;;;;;;;;;;5017515;28;20523;-77
2023/08/12 02:16:32;;;;;;;7.75;2.80;;;;;;;;;;5023228;28;20030;-77
2023/08/12 02:18:57;;;;;;;4.68;2.75;;;;;;;;;;5026053;28;20037;-77
2023/08/12 02:21:22;;;;;;;6.90;2.97;;;;;;;;;;5023296;28;20041;-77
2023/08/12 02:23:47;;;;;;;5.53;3.22;;;;;;;;;;5029655;28;20042;-77
2023/08/12 02:26:12;;;;;;;4.72;2.70;;;;;;;;;;5011464;28;20084;-77
2023/08/12 02:28:38;;;;;;;7.53;2.83;;;;;;;;;;5028805;28;20041;-77
2023/08/12 02:31:03;;;;;;;4.70;2.78;;;;;;;;;;5025474;28;20033;-77
2023/08/12 02:33:28;;;;;;;5.50;2.55;;;;;;;;;;5033269;28;20026;-77
2023/08/12 02:35:54;;;;;;;5.43;2.58;;;;;;;;;;5016713;28;20531;-77
2023/08/12 02:38:19;;;;;;;5.00;2.67;;;;;;;;;;5028926;28;20033;-77
2023/08/12 02:40:47;;;;;;;4.65;2.65;;;;;;;;;;5025027;28;20108;-77
2023/08/12 02:43:12;;;;;;;5.90;2.35;;;;;;;;;;5029465;28;20046;-77
2023/08/12 02:45:37;;;;;;;6.80;2.90;;;;;;;;;;5010185;28;20038;-77
2023/08/12 02:48:03;;;;;;;7.20;2.63;;;;;;;;;;5011582;28;20085;-77
2023/08/12 02:50:28;;;;;;;8.60;2.58;;;;;;;;;;4999640;28;20125;-77
2023/08/12 02:52:53;;;;;;;4.70;2.90;;;;;;;;;;5028350;28;20507;-76
2023/08/12 02:55:18;;;;;;;5.30;2.50;;;;;;;;;;5027423;28;20057;-77
2023/08/12 02:57:44;;;;;;;6.40;2.53;;;;;;;;;;5006209;28;20134;-77
2023/08/12 03:00:09;;;;;;;4.53;2.67;;;;;;;;;;5010912;28;20451;-77
2023/08/12 03:02:34;;;;;;;5.15;2.50;;;;;;;;;;5027592;28;20406;-77
2023/08/12 03:05:00;;;;;;;5.75;3.22;;;;;;;;;;5006567;28;20026;-77
2023/08/12 03:07:25;;;;;;;8.25;3.17;;;;;;;;;;5035117;28;20025;-77
2023/08/12 03:09:50;;;;;;;5.63;2.92;;;;;;;;;;5017149;28;20056;-77
2023/08/12 03:12:16;;;;;;;5.05;3.10;;;;;;;;;;5026724;28;20061;-77
2023/08/12 03:14:41;;;;;;;3.65;2.22;;;;;;;;;;5017851;28;20033;-77
2023/08/12 03:17:08;;;;;;;6.68;2.92;;;;;;;;;;4989709;28;20018;-78
2023/08/12 03:19:35;;;;;;;5.93;3.05;;;;;;;;;;5011658;28;20128;-78
2023/08/12 03:22:01;;;;;;;6.95;2.50;;;;;;;;;;5009577;28;20061;-77
2023/08/12 03:24:26;;;;;;;5.43;2.67;;;;;;;;;;5017254;28;20429;-77
2023/08/12 03:26:52;;;;;;;5.30;2.53;;;;;;;;;;5017015;28;20531;-78
2023/08/12 03:29:17;;;;;;;4.88;2.50;;;;;;;;;;5028711;28;20697;-78
2023/08/12 03:31:42;;;;;;;4.22;2.40;;;;;;;;;;5010880;28;20060;-78
2023/08/12 03:34:07;;;;;;;5.07;2.67;;;;;;;;;;4998392;28;20017;-77
2023/08/12 03:36:33;;;;;;;4.65;2.45;;;;;;;;;;5010757;28;20030;-78
2023/08/12 03:38:58;;;;;;;5.90;2.92;;;;;;;;;;5022245;28;20037;-78
2023/08/12 03:41:26;;;;;;;4.95;2.80;;;;;;;;;;5011043;28;20044;-77
2023/08/12 03:43:53;;;;;;;4.38;2.85;;;;;;;;;;5017225;28;20030;-77
2023/08/12 03:46:19;;;;;;;5.05;2.53;;;;;;;;;;5025243;28;20037;-77
2023/08/12 03:48:45;;;;;;;6.90;2.67;;;;;;;;;;5006209;28;20113;-77
2023/08/12 03:51:11;;;;;;;5.57;2.38;;;;;;;;;;5011932;28;20025;-77
2023/08/12 03:53:36;;;;;;;6.00;2.80;;;;;;;;;;5014156;28;20033;-77
2023/08/12 03:56:01;;;;;;;6.05;3.20;;;;;;;;;;5004496;28;20037;-77
2023/08/12 03:58:28;;;;;;;5.57;2.72;;;;;;;;;;4994067;28;20034;-77
2023/08/12 04:00:54;;;;;;;5.85;3.08;;;;;;;;;;4997255;28;20112;-77
2023/08/12 04:03:19;;;;;;;4.60;2.80;;;;;;;;;;5026453;28;20021;-77
2023/08/12 04:05:52;;;;;;;7.07;3.42;;;;;;;;;;5002898;28;20579;-77
2023/08/12 04:08:19;;;;;;;5.80;2.85;;;;;;;;;;5008405;28;20040;-77
2023/08/12 04:10:45;;;;;;;6.68;3.13;;;;;;;;;;5021483;28;20034;-78
2023/08/12 04:13:10;;;;;;;5.53;3.00;;;;;;;;;;4993050;28;20408;-77
2023/08/12 04:15:35;;;;;;;5.80;3.33;;;;;;;;;;5004062;28;20033;-77
2023/08/12 04:18:01;;;;;;;4.95;2.70;;;;;;;;;;5025933;28;20021;-77
2023/08/12 04:20:26;;;;;;;5.63;2.65;;;;;;;;;;5003254;28;20397;-77
2023/08/12 04:22:51;;;;;;;5.50;2.80;;;;;;;;;;5008009;28;20087;-77
2023/08/12 04:25:17;;;;;;;10.02;3.65;;;;;;;;;;4996619;28;20092;-77
2023/08/12 04:27:42;;;;;;;5.22;3.05;;;;;;;;;;5007603;28;20034;-77
2023/08/12 04:30:07;;;;;;;5.78;3.10;;;;;;;;;;5019615;28;20021;-77
2023/08/12 04:32:33;;;;;;;6.25;2.92;;;;;;;;;;5010467;28;20029;-77
2023/08/12 04:34:58;;;;;;;5.10;3.08;;;;;;;;;;5016412;28;20037;-77
2023/08/12 04:37:25;;;;;;;4.97;3.00;;;;;;;;;;5024410;28;20034;-78
2023/08/12 04:39:51;;;;;;;5.55;2.42;;;;;;;;;;4997838;28;20022;-77
2023/08/12 04:42:18;;;;;;;4.90;2.65;;;;;;;;;;5002678;28;20030;-77
2023/08/12 04:44:44;;;;;;;4.55;2.85;;;;;;;;;;5009409;28;20029;-77
2023/08/12 04:47:09;;;;;;;6.60;3.15;;;;;;;;;;5010725;28;20116;-81
2023/08/12 04:49:36;;;;;;;7.57;2.67;;;;;;;;;;5015994;28;20025;-81
2023/08/12 04:52:01;;;;;;;5.40;3.20;;;;;;;;;;5013762;28;20562;-80
2023/08/12 04:54:27;;;;;;;5.50;3.50;;;;;;;;;;5025745;28;20022;-80
2023/08/12 04:56:52;;;;;;;6.32;3.38;;;;;;;;;;5015479;28;20024;-82
2023/08/12 04:59:19;;;;;;;4.15;2.80;;;;;;;;;;5023126;28;20034;-81
2023/08/12 05:01:45;;;;;;;5.57;3.08;;;;;;;;;;5019261;28;20029;-80
2023/08/12 05:04:11;;;;;;;6.40;2.78;;;;;;;;;;5012205;28;20036;-81
2023/08/12 05:06:36;;;;;;;4.47;3.10;;;;;;;;;;5013031;28;20029;-80
2023/08/12 05:09:02;;;;;;;6.50;3.30;;;;;;;;;;5010216;28;20057;-80
2023/08/12 05:11:29;;;;;;;3.92;2.60;;;;;;;;;;4998205;28;20026;-80
2023/08/12 05:13:54;;;;;;;6.43;3.30;;;;;;;;;;5015833;28;20032;-80
2023/08/12 05:16:20;;;;;;;6.57;2.88;;;;;;;;;;5010961;28;20034;-80
2023/08/12 05:18:45;;;;;;;6.50;2.92;;;;;;;;;;5011347;28;20049;-80
2023/08/12 05:21:11;;;;;;;6.85;3.25;;;;;;;;;;4994458;28;20034;-80
2023/08/12 05:23:36;;;;;;;5.37;3.30;;;;;;;;;;5013231;28;20034;-80
2023/08/12 05:26:02;;;;;;;4.95;3.03;;;;;;;;;;5016647;28;20371;-80
2023/08/12 05:28:28;;;;;;;5.68;3.50;;;;;;;;;;5018919;28;20567;-80
2023/08/12 05:30:55;;;;;;;4.53;3.00;;;;;;;;;;5032212;28;20029;-80
2023/08/12 05:33:20;;;;;;;8.00;3.38;;;;;;;;;;5012693;28;20273;-81
2023/08/12 05:35:47;;;;;;;5.60;3.25;;;;;;;;;;5011728;28;20034;-80
2023/08/12 05:38:12;;;;;;;4.80;2.97;;;;;;;;;;5030273;28;20076;-80
2023/08/12 05:40:37;;;;;;;5.37;2.63;;;;;;;;;;5028244;28;20088;-80
2023/08/12 05:43:02;;;;;;;8.27;3.00;;;;;;;;;;5033031;28;20300;-80
2023/08/12 05:45:27;;;;;;;4.22;2.80;;;;;;;;;;5027904;28;20767;-80
2023/08/12 05:47:53;;;;;;;6.60;3.47;;;;;;;;;;5028866;28;20032;-80
2023/08/12 05:50:18;;;;;;;4.97;3.07;;;;;;;;;;5022656;28;20285;-80
2023/08/12 05:52:43;;;;;;;5.53;3.15;;;;;;;;;;5028177;28;20298;-81
2023/08/12 05:55:08;;;;;;;7.50;2.70;;;;;;;;;;5032048;28;20532;-80
2023/08/12 05:57:34;;;;;;;3.80;2.43;;;;;;;;;;5032337;28;20022;-80
2023/08/12 05:59:59;;;;;;;4.28;2.67;;;;;;;;;;5032560;28;20272;-80
2023/08/12 06:02:25;;;;;;;4.15;2.70;;;;;;;;;;5029201;28;20033;-80
2023/08/12 06:04:50;;;;;;;6.88;3.13;;;;;;;;;;5017897;28;20057;-81
2023/08/12 06:07:15;;;;;;;5.57;2.80;;;;;;;;;;5026163;28;20029;-81
2023/08/12 06:09:40;;;;;;;5.20;3.38;;;;;;;;;;5017038;28;20036;-81
2023/08/12 06:12:06;;;;;;;5.73;3.27;;;;;;;;;;5033950;28;20018;-81
2023/08/12 06:14:31;;;;;;;5.10;2.65;;;;;;;;;;5033853;28;20647;-81
2023/08/12 06:16:56;;;;;;;4.93;2.70;;;;;;;;;;5023172;28;20021;-81
2023/08/12 06:19:22;;;;;;;3.77;2.43;;;;;;;;;;5022570;28;20280;-80
2023/08/12 06:21:47;;;;;;;6.30;2.80;;;;;;;;;;5033922;28;20276;-81
2023/08/12 06:24:12;;;;;;;4.57;2.80;;;;;;;;;;5034081;28;20097;-80
2023/08/12 06:26:37;;;;;;;4.77;2.90;;;;;;;;;;5015680;28;20302;-81
2023/08/12 06:29:02;;;;;;;5.47;3.10;;;;;;;;;;5035712;28;20287;-81
2023/08/12 06:31:28;;;;;;;4.77;2.80;;;;;;;;;;5031956;28;20305;-81
2023/08/12 06:33:53;;;;;;;4.95;2.70;;;;;;;;;;5037797;28;20280;-82
2023/08/12 06:36:18;;;;;;;6.13;2.97;;;;;;;;;;5033009;28;20033;-81
2023/08/12 06:38:43;;;;;;;6.57;2.80;;;;;;;;;;5035901;28;20033;-81
2023/08/12 06:41:08;;;;;;;7.93;3.00;;;;;;;;;;5035911;28;20280;-81
2023/08/12 06:43:34;;;;;;;5.07;2.67;;;;;;;;;;5037332;28;20276;-81
2023/08/12 06:46:00;;;;;;;5.45;3.05;;;;;;;;;;5023601;28;20304;-81
2023/08/12 06:48:25;;;;;;;6.07;2.63;;;;;;;;;;5019189;28;20033;-81
2023/08/12 06:50:56;;;;;;;4.10;2.30;;;;;;;;;;5037966;28;20274;-79
2023/08/12 06:53:22;;;;;;;4.82;2.70;;;;;;;;;;5040939;28;20336;-80
2023/08/12 06:55:47;;;;;;;4.10;2.42;;;;;;;;;;5047637;28;20033;-81
2023/08/12 06:58:13;;;;;;;5.33;2.83;;;;;;;;;;5026567;28;20030;-81
2023/08/12 07:00:38;;;;;;;5.15;2.70;;;;;;;;;;5039190;28;20304;-80
2023/08/12 07:03:03;;;;;;;4.83;2.23;;;;;;;;;;5029316;28;20025;-81
2023/08/12 07:05:29;;;;;;;4.57;2.75;;;;;;;;;;5033363;28;20305;-81
2023/08/12 07:07:54;;;;;;;4.22;2.55;;;;;;;;;;5026977;28;20117;-80
2023/08/12 07:10:19;;;;;;;7.97;2.40;;;;;;;;;;5027907;28;20026;-80
2023/08/12 07:12:44;;;;;;;4.03;2.37;;;;;;;;;;5011138;28;20772;-80
2023/08/12 07:15:10;;;;;;;7.07;2.30;;;;;;;;;;5018401;28;20282;-81
2023/08/12 07:17:36;;;;;;;5.82;2.28;;;;;;;;;;5009860;28;20272;-80
2023/08/12 07:20:01;;;;;;;3.40;2.08;;;;;;;;;;5029270;28;20442;-82
2023/08/12 07:22:27;;;;;;;4.50;2.13;;;;;;;;;;5018558;28;20034;-82
2023/08/12 07:24:52;;;;;;;5.73;2.47;;;;;;;;;;5026913;28;20021;-82
2023/08/12 07:27:18;;;;;;;4.13;1.83;;;;;;;;;;5043095;28;20271;-82
2023/08/12 07:29:43;;;;;;;4.18;2.53;;;;;;;;;;5032962;28;20299;-81
2023/08/12 07:32:08;;;;;;;5.13;2.10;;;;;;;;;;5037511;28;20030;-81
2023/08/12 07:34:33;;;;;;;5.33;2.40;;;;;;;;;;5043053;28;20292;-81
2023/08/12 07:36:58;;;;;;;4.10;2.10;;;;;;;;;;5040214;28;20324;-81
2023/08/12 07:39:24;;;;;;;3.63;2.17;;;;;;;;;;5021976;28;20282;-81
2023/08/12 07:41:49;;;;;;;4.70;2.40;;;;;;;;;;5039718;28;20030;-82
2023/08/12 07:44:14;;;;;;;4.83;2.10;;;;;;;;;;5012305;28;20328;-82
2023/08/12 07:46:39;;;;;;;6.40;2.10;;;;;;;;;;5042409;28;20281;-81
2023/08/12 07:49:04;;;;;;;4.05;2.08;;;;;;;;;;5027674;28;20301;-82
2023/08/12 07:51:30;;;;;;;5.35;2.20;;;;;;;;;;5042633;28;20025;-82
2023/08/12 07:53:55;;;;;;;3.97;2.03;;;;;;;;;;5045118;28;20484;-82
2023/08/12 07:56:20;;;;;;;4.33;2.27;;;;;;;;;;5022949;28;20272;-82
2023/08/12 07:58:45;;;;;;;6.17;2.20;;;;;;;;;;5033917;28;20285;-82
2023/08/12 08:01:11;;;;;;;6.88;2.40;;;;;;;;;;5005589;28;20288;-81
2023/08/12 08:03:36;;;;;;;5.60;2.25;;;;;;;;;;5038382;28;20065;-80
2023/08/12 08:06:01;;;;;;;3.90;2.40;;;;;;;;;;5032342;28;20026;-80
2023/08/12 08:08:26;;;;;;;4.88;2.45;;;;;;;;;;5030055;28;20661;-81
2023/08/12 08:10:51;;;;;;;4.80;2.30;;;;;;;;;;5046861;28;20013;-82
2023/08/12 08:13:17;;;;;;;3.83;1.93;;;;;;;;;;5039683;28;20479;-82
2023/08/12 08:15:42;;;;;;;3.70;1.97;;;;;;;;;;5038127;28;20276;-80
2023/08/12 08:18:07;;;;;;;3.93;2.03;;;;;;;;;;5015854;28;20288;-81
2023/08/12 08:20:33;;;;;;;2.67;1.70;;;;;;;;;;5034191;28;20292;-82
2023/08/12 08:22:58;;;;;;;4.28;1.88;;;;;;;;;;5022693;28;20029;-82
2023/08/12 08:25:23;;;;;;;4.68;2.10;;;;;;;;;;4998762;28;20101;-82
2023/08/12 08:27:48;;;;;;;5.20;2.30;;;;;;;;;;5029442;28;20073;-82
2023/08/12 08:30:14;;;;;;;3.63;1.83;;;;;;;;;;5029230;28;20044;-82
2023/08/12 08:32:39;;;;;;;5.18;1.98;;;;;;;;;;5014572;28;20831;-81
2023/08/12 08:35:04;;;;;;;3.40;1.73;;;;;;;;;;5028643;28;20021;-81
2023/08/12 08:37:30;;;;;;;3.45;1.80;;;;;;;;;;4992228;28;20029;-81
2023/08/12 08:39:55;;;;;;;5.47;2.28;;;;;;;;;;5007696;28;20061;-81
2023/08/12 08:42:23;;;;;;;3.30;2.10;;;;;;;;;;4999620;28;20038;-82
2023/08/12 08:44:51;;;;;;;3.15;1.90;;;;;;;;;;5028252;28;20038;-82
2023/08/12 08:47:19;;;;;;;3.63;2.00;;;;;;;;;;5011779;28;20037;-82
2023/08/12 08:49:44;;;;;;;3.47;1.60;;;;;;;;;;5006555;28;20038;-82
2023/08/12 08:52:09;;;;;;;5.40;1.67;;;;;;;;;;5029199;28;20037;-82
2023/08/12 08:54:35;;;;;;;4.22;1.90;;;;;;;;;;5028009;28;20104;-82
2023/08/12 08:57:00;;;;;;;3.30;1.63;;;;;;;;;;5029942;28;20092;-82
2023/08/12 08:59:25;;;;;;;2.97;1.90;;;;;;;;;;5010746;28;20374;-82
2023/08/12 09:01:51;;;;;;;2.72;1.70;;;;;;;;;;5017841;28;20296;-82
2023/08/12 09:04:17;;;;;;;7.05;1.80;;;;;;;;;;5032345;28;20037;-82
2023/08/12 09:06:43;;;;;;;3.22;1.58;;;;;;;;;;5031028;28;20094;-82
2023/08/12 09:09:10;;;;;;;3.38;1.88;;;;;;;;;;5030354;28;20118;-82
2023/08/12 09:11:38;;;;;;;3.95;2.17;;;;;;;;;;5004911;28;20041;-81
2023/08/12 09:14:03;;;;;;;3.97;1.73;;;;;;;;;;5006487;28;20029;-82
2023/08/12 09:16:28;;;;;;;3.38;1.60;;;;;;;;;;5011466;28;20129;-82
2023/08/12 09:18:54;;;;;;;3.75;1.80;;;;;;;;;;4997231;28;20037;-82
2023/08/12 09:21:20;;;;;;;2.63;1.50;;;;;;;;;;5019716;28;20070;-82
2023/08/12 09:23:45;;;;;;;3.80;1.70;;;;;;;;;;4999286;28;20030;-82
2023/08/12 09:26:12;;;;;;;3.22;1.80;;;;;;;;;;5029034;28;20288;-82
2023/08/12 09:28:38;;;;;;;3.17;1.85;;;;;;;;;;4999592;28;20039;-82
2023/08/12 09:31:03;;;;;;;2.92;1.58;;;;;;;;;;5027754;28;20060;-82
2023/08/12 09:33:28;;;;;;;4.00;1.90;;;;;;;;;;5008953;28;20059;-82
2023/08/12 09:35:56;;;;;;;2.80;1.88;;;;;;;;;;5011194;28;20426;-82
2023/08/12 09:38:21;;;;;;;4.05;1.55;;;;;;;;;;5035284;28;20068;-82
2023/08/12 09:40:47;;;;;;;2.95;1.33;;;;;;;;;;5036007;28;20030;-82
2023/08/12 09:43:13;;;;;;;3.78;1.63;;;;;;;;;;5007963;28;20044;-82
2023/08/12 09:45:38;;;;;;;3.22;1.73;;;;;;;;;;5029969;28;20036;-84
2023/08/12 09:48:03;;;;;;;3.77;1.70;;;;;;;;;;5013723;28;20056;-82
2023/08/12 09:50:29;;;;;;;3.20;1.83;;;;;;;;;;5030509;28;20480;-82
2023/08/12 09:52:54;;;;;;;3.10;1.80;;;;;;;;;;5033194;28;20040;-81
2023/08/12 09:55:21;;;;;;;2.90;1.70;;;;;;;;;;5033479;28;20060;-82
2023/08/12 09:57:56;;;;;;;5.00;1.83;;;;;;;;;;5008741;28;20025;-83
2023/08/12 10:00:23;;;;;;;4.10;1.50;;;;;;;;;;5025968;28;20037;-83
2023/08/12 10:02:51;;;;;;;3.35;1.70;;;;;;;;;;5025578;28;20029;-82
2023/08/12 10:05:27;;;;;;;3.15;1.52;;;;;;;;;;5036837;28;20045;-83
2023/08/12 10:07:53;;;;;;;2.53;1.67;;;;;;;;;;5028037;28;20113;-80
2023/08/12 10:10:18;;;;;;;2.65;1.70;;;;;;;;;;5033468;28;20113;-78
2023/08/12 10:12:44;;;;;;;2.75;1.35;;;;;;;;;;5028707;28;20037;-79
2023/08/12 10:15:10;;;;;;;4.27;1.93;;;;;;;;;;5030053;28;20053;-79
2023/08/12 10:17:36;;;;;;;4.35;1.50;;;;;;;;;;5029148;28;20351;-78
2023/08/12 10:20:04;;;;;;;4.25;1.73;;;;;;;;;;5029291;28;20063;-79
2023/08/12 10:22:29;;;;;;;2.63;1.48;;;;;;;;;;5008641;28;20039;-79
2023/08/12 10:24:56;;;;;;;3.90;1.90;;;;;;;;;;5029632;28;20120;-79
2023/08/12 10:27:22;;;;;;;3.38;1.77;;;;;;;;;;5027777;28;20025;-79
2023/08/12 10:29:47;;;;;;;5.03;2.17;;;;;;;;;;5031730;28;20052;-79
2023/08/12 10:32:13;;;;;;;3.07;2.10;;;;;;;;;;5029871;28;20058;-79
2023/08/12 10:34:38;;;;;;;2.65;1.63;;;;;;;;;;5012052;28;20271;-79
2023/08/12 10:37:04;;;;;;;2.80;1.55;;;;;;;;;;5010802;28;20030;-79
2023/08/12 10:39:31;;;;;;;3.15;1.52;;;;;;;;;;5008408;28;20519;-79
2023/08/12 10:41:57;;;;;;;2.40;1.60;;;;;;;;;;5029663;28;20034;-78
2023/08/12 10:44:25;;;;;;;3.17;1.80;;;;;;;;;;5029713;28;20482;-79
2023/08/12 10:46:51;;;;;;;4.07;1.80;;;;;;;;;;5026385;28;20037;-79
2023/08/12 10:49:18;;;;;;;4.47;1.65;;;;;;;;;;5002030;28;20080;-79
2023/08/12 10:51:44;;;;;;;2.50;1.60;;;;;;;;;;5026160;28;20489;-79
2023/08/12 10:54:30;;;;;;;5.07;1.70;;;;;;;;;;5029542;28;20136;-79
2023/08/12 10:57:01;;;;;;;5.85;1.77;;;;;;;;;;5027437;28;20117;-79
2023/08/12 10:59:45;;;;;;;4.13;1.55;;;;;;;;;;5011213;28;20030;-78
2023/08/12 11:02:16;;;;;;;3.75;2.08;;;;;;;;;;5026359;28;20033;-80
2023/08/12 11:04:41;;;;;;;3.95;1.50;;;;;;;;;;5027156;28;20404;-79
2023/08/12 11:07:18;;;;;;;3.78;1.50;;;;;;;;;;4994837;28;20044;-79
2023/08/12 11:09:43;;;;;;;4.25;1.58;;;;;;;;;;5025605;28;20045;-79
2023/08/12 11:12:09;;;;;;;6.43;1.80;;;;;;;;;;5029348;28;20034;-78
2023/08/12 11:14:46;;;;;;;4.53;1.73;;;;;;;;;;5012501;28;20040;-79
2023/08/12 11:17:13;;;;;;;4.45;1.85;;;;;;;;;;5027586;28;20035;-79
2023/08/12 11:19:38;;;;;;;3.58;1.50;;;;;;;;;;5024743;28;20507;-78
2023/08/12 11:22:04;;;;;;;2.67;1.47;;;;;;;;;;5032632;28;20124;-79
2023/08/12 11:24:31;;;;;;;4.65;1.98;;;;;;;;;;5013217;28;20770;-79
2023/08/12 11:26:57;;;;;;;4.63;1.88;;;;;;;;;;5025515;28;20045;-78
2023/08/12 11:29:22;;;;;;;4.13;1.70;;;;;;;;;;5010590;28;20029;-79
2023/08/12 11:31:47;;;;;;;6.07;1.73;;;;;;;;;;5028873;28;20496;-79
2023/08/12 11:34:13;;;;;;;3.33;1.60;;;;;;;;;;5029432;28;20029;-79
2023/08/12 11:36:38;;;;;;;3.07;1.70;;;;;;;;;;5006209;28;20579;-79
2023/08/12 11:39:03;;;;;;;2.25;1.27;;;;;;;;;;5009750;28;20674;-79
2023/08/12 11:41:29;;;;;;;3.45;1.77;;;;;;;;;;5031872;28;20037;-79
2023/08/12 11:43:54;;;;;;;3.40;1.27;;;;;;;;;;5026172;28;20041;-78
2023/08/12 11:46:19;;;;;;;4.00;1.40;;;;;;;;;;5027548;28;20044;-78
2023/08/12 11:48:44;;;;;;;4.97;1.97;;;;;;;;;;5023773;28;20034;-79
2023/08/12 11:51:09;;;;;;;4.77;1.97;;;;;;;;;;5027181;28;20288;-79
2023/08/12 11:53:35;;;;;;;4.22;1.67;;;;;;;;;;5011691;28;20484;-79
2023/08/12 11:56:00;;;;;;;7.00;1.85;;;;;;;;;;5024074;28;20030;-79
2023/08/12 11:58:25;;;;;;;3.38;1.85;;;;;;;;;;5028318;28;20037;-78
2023/08/12 12:00:51;;;;;;;3.35;2.03;;;;;;;;;;5024802;28;20056;-79
2023/08/12 12:03:16;;;;;;;4.93;2.38;;;;;;;;;;5027789;28;20025;-79
2023/08/12 12:05:42;;;;;;;3.65;1.80;;;;;;;;;;5008927;28;20534;-79
2023/08/12 12:08:09;;;;;;;2.83;2.00;;;;;;;;;;5024754;28;20041;-79
2023/08/12 12:10:35;;;;;;;4.18;1.90;;;;;;;;;;5024875;28;20036;-79
2023/08/12 12:13:01;;;;;;;3.15;1.92;;;;;;;;;;5024933;28;20026;-79
2023/08/12 12:15:26;;;;;;;3.72;1.90;;;;;;;;;;5028544;28;20030;-79
2023/08/12 12:17:52;;;;;;;2.90;2.00;;;;;;;;;;5025203;28;20040;-78
2023/08/12 12:20:18;;;;;;;4.47;1.95;;;;;;;;;;5024890;28;20032;-79
2023/08/12 12:22:44;;;;;;;7.50;2.00;;;;;;;;;;5016209;28;20040;-79
2023/08/12 12:25:14;;;;;;;3.33;1.70;;;;;;;;;;5030514;28;20029;-79
2023/08/12 12:27:40;;;;;;;3.20;1.90;;;;;;;;;;5024328;28;20262;-79
2023/08/12 12:30:07;;;;;;;3.83;1.92;;;;;;;;;;5025950;28;20112;-79
2023/08/12 12:32:32;;;;;;;4.90;2.42;;;;;;;;;;5006166;28;20033;-78
2023/08/12 12:34:57;;;;;;;3.27;2.10;;;;;;;;;;5026732;28;20040;-79
2023/08/12 12:37:22;;;;;;;4.77;1.90;;;;;;;;;;5026575;28;20029;-79
2023/08/12 12:39:48;;;;;;;3.57;2.17;;;;;;;;;;5008202;28;20515;-79
2023/08/12 12:42:13;;;;;;;3.80;2.00;;;;;;;;;;5028742;28;20037;-79
2023/08/12 12:44:38;;;;;;;4.65;2.08;;;;;;;;;;5028068;28;20060;-79
2023/08/12 12:47:03;;;;;;;5.23;2.20;;;;;;;;;;5014559;28;20036;-79
2023/08/12 12:49:29;;;;;;;2.78;1.88;;;;;;;;;;5027071;28;20291;-79
2023/08/12 12:51:54;;;;;;;5.60;1.83;;;;;;;;;;5024100;28;20088;-79
2023/08/12 12:54:19;;;;;;;4.10;2.17;;;;;;;;;;5014929;28;20085;-79
2023/08/12 12:56:45;;;;;;;3.38;2.05;;;;;;;;;;5027305;28;20105;-78
2023/08/12 12:59:10;;;;;;;4.30;2.17;;;;;;;;;;5027082;28;20041;-79
2023/08/12 13:01:35;;;;;;;5.07;2.33;;;;;;;;;;5018878;28;20072;-79
2023/08/12 13:04:00;;;;;;;6.10;1.80;;;;;;;;;;5010134;28;20353;-79
2023/08/12 13:06:25;;;;;;;3.00;1.92;;;;;;;;;;5023106;28;20344;-78
2023/08/12 13:08:51;;;;;;;4.90;2.00;;;;;;;;;;5012072;28;20030;-79
2023/08/12 13:11:16;;;;;;;3.80;2.23;;;;;;;;;;5018168;28;20029;-79
2023/08/12 13:13:41;;;;;;;4.40;2.20;;;;;;;;;;5023833;28;20279;-78
2023/08/12 13:16:08;;;;;;;3.03;1.73;;;;;;;;;;5018183;28;20029;-78
2023/08/12 13:18:33;;;;;;;3.28;1.98;;;;;;;;;;5006440;28;20030;-79
2023/08/12 13:20:58;;;;;;;3.88;1.83;;;;;;;;;;5022576;28;20045;-79
2023/08/12 13:23:23;;;;;;;4.63;1.93;;;;;;;;;;5030910;28;20067;-78
2023/08/12 13:25:48;;;;;;;2.80;1.80;;;;;;;;;;5028443;28;20046;-79
2023/08/12 13:28:14;;;;;;;4.37;2.03;;;;;;;;;;5034684;28;20038;-78
2023/08/12 13:30:39;;;;;;;4.03;2.20;;;;;;;;;;5030930;28;20280;-78
2023/08/12 13:33:04;;;;;;;2.83;1.80;;;;;;;;;;5034456;28;20300;-79
2023/08/12 13:35:30;;;;;;;3.00;1.90;;;;;;;;;;5027263;28;20109;-79
2023/08/12 13:37:55;;;;;;;3.08;1.70;;;;;;;;;;5015802;28;20022;-77
2023/08/12 13:40:20;;;;;;;6.27;2.10;;;;;;;;;;5012249;28;20034;-79
2023/08/12 13:42:46;;;;;;;4.55;2.22;;;;;;;;;;5030710;28;20032;-78
2023/08/12 13:45:11;;;;;;;3.75;2.28;;;;;;;;;;5029155;28;20041;-79
2023/08/12 13:47:37;;;;;;;3.55;1.90;;;;;;;;;;5019802;28;20593;-79
2023/08/12 13:50:02;;;;;;;4.90;1.90;;;;;;;;;;5013527;28;20037;-79
2023/08/12 13:52:27;;;;;;;4.63;2.45;;;;;;;;;;5032029;28;20030;-78
2023/08/12 13:54:53;;;;;;;4.10;2.17;;;;;;;;;;5028928;28;20037;-79
2023/08/12 13:57:18;;;;;;;4.50;2.30;;;;;;;;;;5033045;28;20021;-79
2023/08/12 13:59:43;;;;;;;3.60;1.93;;;;;;;;;;5029921;28;20087;-79
2023/08/12 14:02:09;;;;;;;5.57;2.40;;;;;;;;;;5031343;28;20306;-79
2023/08/12 14:04:34;;;;;;;3.10;2.13;;;;;;;;;;5029172;28;20026;-79
2023/08/12 14:07:00;;;;;;;4.27;2.20;;;;;;;;;;5028575;28;20446;-78
2023/08/12 14:09:25;;;;;;;4.07;1.83;;;;;;;;;;5028131;28;20042;-79
2023/08/12 14:11:50;;;;;;;3.40;1.50;;;;;;;;;;5030899;28;20052;-79
2023/08/12 14:14:15;;;;;;;3.10;1.93;;;;;;;;;;5031608;28;20408;-79
2023/08/12 14:16:41;;;;;;;3.10;1.93;;;;;;;;;;5029139;28;20037;-79
2023/08/12 14:19:06;;;;;;;3.70;1.90;;;;;;;;;;5009543;28;20283;-78
2023/08/12 14:21:31;;;;;;;4.03;1.90;;;;;;;;;;5027877;28;20037;-79
2023/08/12 14:23:56;;;;;;;3.27;2.00;;;;;;;;;;5027740;28;20025;-79
2023/08/12 14:26:22;;;;;;;3.07;1.60;;;;;;;;;;5028043;28;20061;-79
2023/08/12 14:28:47;;;;;;;4.37;2.13;;;;;;;;;;5029974;28;20037;-79
2023/08/12 14:31:12;;;;;;;2.50;1.30;;;;;;;;;;5009418;28;20125;-78
2023/08/12 14:33:37;;;;;;;2.90;1.77;;;;;;;;;;5025982;28;20052;-79
2023/08/12 14:36:03;;;;;;;5.30;1.50;;;;;;;;;;5011210;28;20029;-78